Time;durP1;ratioP1;P1;durP2;ratioP2;P2;SDS_P1;SDS_P2;PMS_P1;PMS_P2;Temp;Humidity;BMP_temperature;BMP_pressure;BME280_temperature;BME280_humidity;BME280_pressure;Samples;Min_cycle;Max_cycle;Signal;HPM_P1;HPM_P2
2022/05/30 00:00:30;;;;;;;4.18;3.00;;;11.80;95.40;;;;;;5104119;28;20039;-69
2022/05/30 00:02:56;;;;;;;5.57;2.97;;;11.90;95.40;;;;;;5103203;28;20024;-69
2022/05/30 00:05:23;;;;;;;5.22;2.83;;;11.90;94.80;;;;;;5103345;28;20023;-69
2022/05/30 00:07:49;;;;;;;4.75;3.08;;;11.80;94.60;;;;;;5082386;28;20016;-69
2022/05/30 00:10:15;;;;;;;4.80;2.88;;;11.90;94.60;;;;;;5082571;28;20081;-69
2022/05/30 00:12:41;;;;;;;6.22;3.28;;;11.90;94.50;;;;;;5065911;28;20016;-69
2022/05/30 00:15:10;;;;;;;3.40;2.67;;;11.90;94.50;;;;;;5083899;28;20087;-69
2022/05/30 00:17:37;;;;;;;6.30;2.63;;;12.00;94.30;;;;;;5065949;28;20181;-69
2022/05/30 00:20:05;;;;;;;6.85;3.30;;;12.00;94.40;;;;;;5083682;28;20040;-69
2022/05/30 00:22:31;;;;;;;6.57;3.35;;;12.00;94.30;;;;;;5083980;28;20215;-69
2022/05/30 00:24:57;;;;;;;3.58;2.67;;;12.00;94.40;;;;;;5083603;28;20017;-69
2022/05/30 00:27:22;;;;;;;6.20;2.83;;;11.90;94.40;;;;;;5096146;28;20299;-69
2022/05/30 00:29:48;;;;;;;4.82;3.25;;;11.90;94.50;;;;;;5103561;28;20067;-69
2022/05/30 00:32:14;;;;;;;6.43;3.08;;;11.90;94.90;;;;;;5103978;28;20031;-69
2022/05/30 00:34:39;;;;;;;4.38;3.20;;;11.90;94.60;;;;;;5103640;28;20027;-69
2022/05/30 00:37:05;;;;;;;7.10;2.95;;;11.90;94.70;;;;;;5101381;28;20016;-69
2022/05/30 00:39:32;;;;;;;8.20;3.45;;;11.90;95.10;;;;;;5102114;28;20030;-69
2022/05/30 00:42:16;;;;;;;11.43;4.57;;;11.80;95.40;;;;;;5103668;28;20088;-69
2022/05/30 00:44:44;;;;;;;6.18;3.05;;;11.80;95.40;;;;;;5102418;28;20027;-69
2022/05/30 00:47:11;;;;;;;7.55;3.85;;;11.90;95.50;;;;;;5085774;28;20035;-69
2022/05/30 00:49:39;;;;;;;5.05;3.45;;;11.90;95.50;;;;;;5103476;28;20040;-68
2022/05/30 00:52:07;;;;;;;9.38;3.75;;;11.90;95.70;;;;;;5103162;28;20093;-68
2022/05/30 00:54:42;;;;;;;7.85;4.13;;;11.80;95.40;;;;;;5103771;28;20303;-68
2022/05/30 00:57:23;;;;;;;6.00;3.92;;;11.70;95.50;;;;;;5102124;28;20303;-68
2022/05/30 00:59:54;;;;;;;7.72;4.68;;;11.70;95.70;;;;;;5105237;28;20023;-68
2022/05/30 01:02:23;;;;;;;9.38;4.40;;;11.60;96.20;;;;;;5107700;28;20027;-68
2022/05/30 01:07:37;;;;;;;7.47;4.60;;;11.60;96.40;;;;;;5099940;28;20013;-68
2022/05/30 01:10:06;;;;;;;7.82;4.78;;;11.60;96.30;;;;;;5086095;28;20099;-68
2022/05/30 01:12:37;;;;;;;7.32;4.55;;;11.50;96.30;;;;;;5085966;28;20086;-68
2022/05/30 01:15:05;;;;;;;7.32;3.78;;;11.40;96.60;;;;;;5086201;28;20091;-68
2022/05/30 01:17:32;;;;;;;5.03;3.95;;;11.30;96.80;;;;;;5086241;28;20095;-68
2022/05/30 01:20:05;;;;;;;7.07;4.30;;;11.20;97.00;;;;;;5069297;28;20020;-69
2022/05/30 01:23:10;;;;;;;6.10;4.50;;;11.20;97.10;;;;;;5086647;28;20421;-68
2022/05/30 01:26:04;;;;;;;7.45;4.20;;;11.20;97.20;;;;;;5086235;28;20027;-69
2022/05/30 01:29:10;;;;;;;6.40;4.70;;;11.30;97.20;;;;;;5089569;28;20216;-69
2022/05/30 01:31:35;;;;;;;6.90;4.45;;;11.30;97.20;;;;;;5074458;28;20315;-68
2022/05/30 01:34:01;;;;;;;7.15;4.55;;;11.40;97.30;;;;;;5087015;28;20020;-68
2022/05/30 01:36:30;;;;;;;8.57;4.90;;;11.40;97.30;;;;;;5085888;28;20020;-68
2022/05/30 01:38:55;;;;;;;10.32;5.85;;;11.40;97.30;;;;;;5069052;28;20020;-68
2022/05/30 01:41:21;;;;;;;10.82;5.57;;;11.30;97.20;;;;;;5086154;28;20027;-68
2022/05/30 01:43:47;;;;;;;4.93;3.78;;;11.30;97.30;;;;;;5086723;28;20216;-68
2022/05/30 01:46:18;;;;;;;5.20;2.70;;;11.30;96.60;;;;;;5071213;28;20063;-68
2022/05/30 01:48:45;;;;;;;4.72;2.75;;;11.30;96.10;;;;;;5089356;28;20266;-68
2022/05/30 01:51:12;;;;;;;4.80;2.85;;;11.30;95.80;;;;;;5106426;28;20040;-68
2022/05/30 01:53:38;;;;;;;6.03;2.67;;;11.30;95.90;;;;;;5106296;28;20008;-68
2022/05/30 01:56:04;;;;;;;3.13;2.35;;;11.30;95.50;;;;;;5085313;28;20227;-68
2022/05/30 01:58:32;;;;;;;3.30;2.15;;;11.30;95.60;;;;;;5086289;28;20071;-68
2022/05/30 02:01:02;;;;;;;3.58;2.47;;;11.40;95.40;;;;;;5085046;28;20024;-68
2022/05/30 02:03:27;;;;;;;3.10;2.00;;;11.40;95.10;;;;;;5068742;28;20224;-68
2022/05/30 02:05:53;;;;;;;5.57;2.45;;;11.40;94.90;;;;;;5086386;28;20027;-68
2022/05/30 02:08:21;;;;;;;6.40;2.88;;;11.40;94.70;;;;;;5104971;28;20311;-68
2022/05/30 02:10:48;;;;;;;6.95;4.13;;;11.40;94.60;;;;;;5104427;28;20280;-69
2022/05/30 02:13:14;;;;;;;6.25;3.47;;;11.40;94.50;;;;;;5106044;28;20188;-68
2022/05/30 02:18:25;;;;;;;4.20;2.78;;;11.40;94.50;;;;;;5091036;28;20012;-68
2022/05/30 02:20:51;;;;;;;7.65;3.03;;;11.30;94.50;;;;;;5106230;28;20035;-68
2022/05/30 02:23:17;;;;;;;8.45;2.83;;;11.20;94.60;;;;;;5104961;28;20023;-68
2022/05/30 02:25:44;;;;;;;3.80;2.83;;;11.30;94.70;;;;;;5105842;28;20054;-68
2022/05/30 02:28:10;;;;;;;5.50;2.60;;;11.10;94.90;;;;;;5084607;28;20335;-68
2022/05/30 02:30:36;;;;;;;4.18;3.00;;;11.10;95.10;;;;;;5084652;28;20028;-67
2022/05/30 02:38:33;;;;;;;3.45;3.00;;;11.10;95.10;;;;;;5082682;28;20028;-68
2022/05/30 02:40:58;;;;;;;5.50;3.45;;;11.10;95.10;;;;;;5084407;28;20028;-67
2022/05/30 02:43:24;;;;;;;8.27;2.97;;;11.10;95.20;;;;;;5084113;28;20025;-68
2022/05/30 02:45:49;;;;;;;4.90;3.03;;;11.20;95.20;;;;;;5084614;28;20058;-68
2022/05/30 02:48:15;;;;;;;4.53;2.95;;;11.10;95.30;;;;;;5103823;28;20024;-68
2022/05/30 02:50:41;;;;;;;6.43;2.83;;;11.10;95.60;;;;;;5070614;28;20043;-68
2022/05/30 02:53:07;;;;;;;4.43;3.03;;;11.10;95.80;;;;;;5104363;28;20326;-68
2022/05/30 02:55:32;;;;;;;5.63;2.78;;;11.00;96.00;;;;;;5105058;28;20031;-68
2022/05/30 02:57:58;;;;;;;4.28;2.70;;;11.10;95.90;;;;;;5105934;28;20294;-68
2022/05/30 03:00:26;;;;;;;3.50;2.85;;;11.00;95.90;;;;;;5105545;28;20024;-68
2022/05/30 03:02:52;;;;;;;4.10;3.00;;;11.00;96.00;;;;;;5087586;28;20047;-69
2022/05/30 03:05:18;;;;;;;5.38;3.00;;;10.90;96.20;;;;;;5104360;28;20020;-68
2022/05/30 03:07:44;;;;;;;5.60;3.22;;;10.90;96.40;;;;;;5083525;28;20329;-69
2022/05/30 03:10:10;;;;;;;5.45;2.95;;;10.80;96.50;;;;;;5083743;28;20035;-68
2022/05/30 03:12:35;;;;;;;4.25;2.95;;;10.80;96.50;;;;;;5083652;28;20205;-68
2022/05/30 03:15:01;;;;;;;4.70;2.90;;;10.80;96.70;;;;;;5083725;28;20319;-68
2022/05/30 03:17:27;;;;;;;4.07;3.00;;;10.70;96.90;;;;;;5084890;28;20207;-68
2022/05/30 03:19:52;;;;;;;6.00;3.38;;;10.60;97.10;;;;;;5067223;28;20028;-67
2022/05/30 03:22:18;;;;;;;5.30;3.83;;;10.50;97.50;;;;;;5082327;28;20334;-68
2022/05/30 03:24:44;;;;;;;6.82;3.47;;;10.30;97.70;;;;;;5083633;28;20027;-68
2022/05/30 03:27:10;;;;;;;4.10;3.30;;;10.20;97.90;;;;;;5108574;28;20042;-68
2022/05/30 03:29:36;;;;;;;5.85;3.60;;;10.20;98.00;;;;;;5125379;28;20023;-68
2022/05/30 03:32:01;;;;;;;6.40;3.72;;;10.20;98.20;;;;;;5125313;28;20024;-68
2022/05/30 03:34:27;;;;;;;5.63;3.35;;;10.10;98.50;;;;;;5123683;28;20292;-67
2022/05/30 03:36:52;;;;;;;8.32;3.97;;;10.00;98.80;;;;;;5124374;28;20034;-68
2022/05/30 03:39:18;;;;;;;5.68;3.47;;;10.00;99.00;;;;;;5121981;28;20030;-68
2022/05/30 03:41:44;;;;;;;7.47;3.53;;;9.90;99.00;;;;;;5124044;28;20019;-68
2022/05/30 03:44:09;;;;;;;6.95;3.50;;;9.90;99.20;;;;;;5124509;28;20042;-68
2022/05/30 03:46:35;;;;;;;6.72;3.00;;;9.90;99.20;;;;;;5118045;28;20066;-68
2022/05/30 03:49:01;;;;;;;7.07;3.22;;;10.00;99.20;;;;;;5103179;28;20078;-68
2022/05/30 03:51:27;;;;;;;5.30;3.33;;;10.10;99.10;;;;;;5104640;28;20043;-68
2022/05/30 03:53:53;;;;;;;5.07;3.10;;;10.10;98.80;;;;;;5104207;28;20027;-68
2022/05/30 03:56:19;;;;;;;6.88;3.20;;;10.10;98.80;;;;;;5103015;28;20020;-68
2022/05/30 03:58:45;;;;;;;6.03;2.75;;;10.10;98.80;;;;;;5103016;28;20083;-68
2022/05/30 04:01:11;;;;;;;5.10;2.80;;;10.00;98.70;;;;;;5103403;28;20024;-67
2022/05/30 04:03:37;;;;;;;6.97;2.63;;;10.00;98.70;;;;;;5102749;28;20088;-68
2022/05/30 04:06:04;;;;;;;5.65;3.55;;;10.10;98.50;;;;;;5104283;28;20095;-68
2022/05/30 04:08:30;;;;;;;7.72;3.45;;;10.10;98.30;;;;;;5089937;28;20020;-68
2022/05/30 04:10:56;;;;;;;13.95;3.85;;;10.00;98.70;;;;;;5083765;28;20056;-68
2022/05/30 04:13:22;;;;;;;9.90;3.45;;;10.00;99.00;;;;;;5082623;28;20021;-68
2022/05/30 04:15:48;;;;;;;4.57;3.40;;;10.00;99.10;;;;;;5083810;28;20047;-68
2022/05/30 04:18:13;;;;;;;5.75;3.17;;;10.00;99.30;;;;;;5082925;28;20112;-68
2022/05/30 04:20:41;;;;;;;7.32;3.63;;;10.00;99.60;;;;;;5082792;28;20020;-68
2022/05/30 04:23:07;;;;;;;5.18;3.45;;;10.00;99.80;;;;;;5083726;28;20062;-67
2022/05/30 04:25:33;;;;;;;5.18;3.53;;;10.10;99.80;;;;;;5082310;28;20211;-67
2022/05/30 04:27:59;;;;;;;4.38;3.60;;;10.10;99.70;;;;;;5120278;28;20019;-67
2022/05/30 04:30:25;;;;;;;10.00;3.80;;;10.10;99.60;;;;;;5124337;28;20038;-68
2022/05/30 04:32:51;;;;;;;10.13;3.65;;;10.20;99.60;;;;;;5122917;28;20020;-68
2022/05/30 04:35:18;;;;;;;7.18;3.63;;;10.20;99.50;;;;;;5089029;28;20020;-68
2022/05/30 04:37:47;;;;;;;5.95;3.85;;;10.10;99.40;;;;;;5122857;28;20039;-68
2022/05/30 04:40:13;;;;;;;6.07;3.83;;;10.20;99.40;;;;;;5121703;28;20080;-68
2022/05/30 04:42:39;;;;;;;8.35;3.90;;;10.10;99.20;;;;;;5124286;28;20391;-68
2022/05/30 04:45:06;;;;;;;7.40;4.15;;;10.10;99.30;;;;;;5123758;28;20073;-68
2022/05/30 04:47:35;;;;;;;6.82;4.07;;;10.10;99.30;;;;;;5092334;28;20215;-68
2022/05/30 04:50:04;;;;;;;4.20;3.65;;;10.00;99.30;;;;;;5102012;28;20100;-68
2022/05/30 04:52:30;;;;;;;7.80;4.20;;;10.00;99.30;;;;;;5086187;28;20103;-68
2022/05/30 04:54:56;;;;;;;10.55;4.40;;;10.10;99.20;;;;;;5085222;28;20056;-68
2022/05/30 04:57:22;;;;;;;9.85;4.65;;;10.00;99.10;;;;;;5103687;28;20020;-68
2022/05/30 04:59:47;;;;;;;7.07;4.30;;;10.00;99.20;;;;;;5103764;28;20318;-68
2022/05/30 05:02:15;;;;;;;11.70;4.43;;;9.90;99.30;;;;;;5103665;28;20257;-68
2022/05/30 05:04:41;;;;;;;7.43;4.10;;;9.90;99.30;;;;;;5102087;28;20047;-68
2022/05/30 05:07:08;;;;;;;7.20;4.15;;;10.00;99.40;;;;;;5083074;28;20204;-68
2022/05/30 05:10:01;;;;;;;8.90;4.20;;;10.10;99.40;;;;;;5081780;28;20025;-68
2022/05/30 05:12:26;;;;;;;5.10;3.55;;;10.30;99.20;;;;;;5082445;28;20327;-67
2022/05/30 05:14:52;;;;;;;8.50;4.93;;;10.50;98.70;;;;;;5081975;28;20076;-68
2022/05/30 05:17:18;;;;;;;8.68;3.90;;;10.70;98.30;;;;;;5083178;28;20078;-68
2022/05/30 05:19:44;;;;;;;12.45;4.20;;;10.80;98.10;;;;;;5082198;28;20021;-68
2022/05/30 05:22:15;;;;;;;7.70;4.30;;;11.00;97.70;;;;;;5082268;28;20091;-69
2022/05/30 05:24:42;;;;;;;9.45;4.43;;;10.90;97.40;;;;;;5082599;28;20036;-69
2022/05/30 05:27:08;;;;;;;5.25;3.92;;;11.00;97.50;;;;;;5094781;28;20051;-70
2022/05/30 05:29:34;;;;;;;10.68;4.15;;;11.00;97.40;;;;;;5102202;28;20020;-68
2022/05/30 05:32:01;;;;;;;8.05;4.70;;;11.00;97.40;;;;;;5103416;28;20231;-68
2022/05/30 05:34:27;;;;;;;8.10;4.43;;;11.10;97.30;;;;;;5102592;28;20384;-69
2022/05/30 05:36:53;;;;;;;6.53;4.32;;;11.20;97.20;;;;;;5102157;28;20091;-68
2022/05/30 05:39:19;;;;;;;11.82;5.13;;;11.10;97.10;;;;;;5102628;28;20046;-68
2022/05/30 05:41:45;;;;;;;7.85;5.07;;;11.10;96.90;;;;;;5083995;28;20034;-68
2022/05/30 05:44:12;;;;;;;8.07;4.90;;;11.10;97.00;;;;;;5102123;28;20035;-68
2022/05/30 05:46:38;;;;;;;16.35;5.68;;;11.10;97.10;;;;;;5106551;28;20020;-69
2022/05/30 05:49:06;;;;;;;13.07;5.60;;;11.10;97.10;;;;;;5108392;28;20044;-69
2022/05/30 05:51:32;;;;;;;23.58;5.50;;;11.20;97.20;;;;;;5106841;28;20222;-68
2022/05/30 05:53:57;;;;;;;10.98;4.90;;;11.40;96.90;;;;;;5088774;28;20028;-68
2022/05/30 05:56:27;;;;;;;6.35;4.03;;;11.50;96.40;;;;;;5088295;28;20027;-69
2022/05/30 05:58:53;;;;;;;8.85;4.63;;;11.50;96.20;;;;;;5107015;28;20016;-69
2022/05/30 06:01:23;;;;;;;15.75;5.15;;;11.50;96.00;;;;;;5106643;28;20023;-68
2022/05/30 06:03:55;;;;;;;16.75;4.78;;;11.50;96.00;;;;;;5105732;28;20053;-68
2022/05/30 06:06:21;;;;;;;15.27;4.13;;;11.50;96.00;;;;;;5105022;28;20031;-68
2022/05/30 06:08:46;;;;;;;14.02;4.57;;;11.50;95.90;;;;;;5089862;28;20021;-69
2022/05/30 06:11:12;;;;;;;10.45;4.03;;;11.60;95.80;;;;;;5086133;28;20025;-69
2022/05/30 06:13:41;;;;;;;8.50;3.80;;;11.70;95.80;;;;;;5086033;28;20024;-68
2022/05/30 06:16:09;;;;;;;15.93;4.28;;;11.80;95.50;;;;;;5084871;28;20131;-69
2022/05/30 06:18:35;;;;;;;9.65;3.92;;;12.00;95.20;;;;;;5085046;28;20032;-69
2022/05/30 06:21:02;;;;;;;7.60;3.70;;;12.00;95.10;;;;;;5086196;28;20184;-69
2022/05/30 06:23:28;;;;;;;8.02;4.25;;;12.00;95.10;;;;;;5084933;28;20029;-68
2022/05/30 06:25:55;;;;;;;7.80;3.55;;;12.00;94.30;;;;;;5085784;28;20250;-68
2022/05/30 06:28:21;;;;;;;17.77;3.83;;;12.10;94.50;;;;;;5104879;28;20020;-69
2022/05/30 06:30:46;;;;;;;17.98;4.25;;;12.20;94.30;;;;;;5104982;28;20099;-69
2022/05/30 06:33:12;;;;;;;17.50;4.30;;;12.20;94.30;;;;;;5105191;28;20024;-68
2022/05/30 06:35:42;;;;;;;15.43;4.50;;;12.20;94.50;;;;;;5105820;28;20238;-70
2022/05/30 06:38:09;;;;;;;10.30;3.78;;;12.20;94.70;;;;;;5104422;28;20047;-69
2022/05/30 06:40:35;;;;;;;9.43;3.90;;;12.30;94.70;;;;;;5103403;28;20016;-68
2022/05/30 06:43:00;;;;;;;7.15;4.05;;;12.50;94.40;;;;;;5104423;28;20015;-70
2022/05/30 06:45:26;;;;;;;5.55;3.40;;;12.80;93.80;;;;;;5105461;28;20242;-69
2022/05/30 06:47:52;;;;;;;6.65;3.20;;;13.00;93.20;;;;;;5104525;28;20024;-68
2022/05/30 06:50:18;;;;;;;7.47;2.88;;;13.20;92.60;;;;;;5085848;28;20226;-70
2022/05/30 06:52:44;;;;;;;13.93;3.88;;;13.40;91.70;;;;;;5105146;28;20020;-69
2022/05/30 06:55:10;;;;;;;6.18;2.95;;;13.50;91.90;;;;;;5104128;28;20054;-69
2022/05/30 07:00:27;;;;;;;5.15;3.03;;;13.80;91.40;;;;;;5090600;28;20215;-69
2022/05/30 07:02:53;;;;;;;6.63;2.53;;;13.90;90.70;;;;;;5105181;28;20016;-69
2022/05/30 07:05:19;;;;;;;4.32;2.70;;;13.80;90.80;;;;;;5104300;28;20116;-69
2022/05/30 07:07:46;;;;;;;4.80;2.53;;;13.80;91.00;;;;;;5096785;28;20304;-70
2022/05/30 07:10:15;;;;;;;4.70;2.78;;;13.90;90.80;;;;;;5083688;28;20239;-69
2022/05/30 07:12:46;;;;;;;8.27;2.50;;;13.90;90.80;;;;;;5090852;28;20311;-70
2022/05/30 07:15:14;;;;;;;7.20;2.53;;;13.80;90.50;;;;;;5104062;28;20307;-70
2022/05/30 07:17:40;;;;;;;2.65;1.90;;;13.80;90.10;;;;;;5104774;28;20035;-70
2022/05/30 07:20:06;;;;;;;5.72;1.95;;;13.80;90.10;;;;;;5086861;28;20289;-69
2022/05/30 07:22:32;;;;;;;6.78;2.15;;;13.80;89.70;;;;;;5103995;28;20315;-70
2022/05/30 07:24:57;;;;;;;9.07;2.22;;;13.90;90.00;;;;;;5086383;28;20019;-70
2022/05/30 07:27:26;;;;;;;2.90;2.20;;;14.00;89.50;;;;;;5083187;28;20199;-69
2022/05/30 07:29:53;;;;;;;5.82;1.90;;;14.20;89.20;;;;;;5083524;28;20129;-70
2022/05/30 07:32:21;;;;;;;5.30;1.88;;;14.40;89.30;;;;;;5083580;28;20021;-69
2022/05/30 07:34:46;;;;;;;5.22;1.92;;;14.60;87.40;;;;;;5083302;28;20028;-71
2022/05/30 07:37:15;;;;;;;4.65;2.15;;;14.80;86.70;;;;;;5082944;28;20091;-69
2022/05/30 07:39:44;;;;;;;10.02;2.90;;;14.80;86.60;;;;;;5082706;28;20020;-69
2022/05/30 07:42:12;;;;;;;2.95;1.50;;;14.90;86.00;;;;;;5082491;28;20024;-69
2022/05/30 07:44:37;;;;;;;3.38;1.70;;;15.20;85.30;;;;;;5084574;28;20016;-69
2022/05/30 07:47:03;;;;;;;3.50;1.70;;;15.10;84.40;;;;;;5092012;28;20020;-70
2022/05/30 07:49:35;;;;;;;5.00;1.70;;;15.20;85.10;;;;;;5102771;28;20051;-70
2022/05/30 07:52:01;;;;;;;6.97;2.10;;;15.20;85.70;;;;;;5086491;28;20036;-70
2022/05/30 07:54:28;;;;;;;4.88;2.13;;;15.40;85.60;;;;;;5069676;28;20042;-70
2022/05/30 07:56:53;;;;;;;6.20;2.22;;;15.50;84.80;;;;;;5082575;28;20052;-70
2022/05/30 07:59:20;;;;;;;3.50;1.98;;;15.50;84.90;;;;;;5082666;28;20073;-70
2022/05/30 08:01:46;;;;;;;7.38;2.40;;;15.50;84.60;;;;;;5084073;28;20070;-70
2022/05/30 08:04:15;;;;;;;6.70;2.33;;;15.60;84.60;;;;;;5099542;28;20230;-69
2022/05/30 08:06:41;;;;;;;4.93;2.13;;;15.70;84.40;;;;;;5082691;28;20266;-69
2022/05/30 08:09:07;;;;;;;7.65;2.00;;;15.70;83.20;;;;;;5101678;28;20039;-70
2022/05/30 08:11:32;;;;;;;3.47;1.88;;;15.80;83.80;;;;;;5103018;28;20327;-71
2022/05/30 08:13:58;;;;;;;3.15;1.67;;;15.80;82.80;;;;;;5103283;28;20024;-70
2022/05/30 08:16:30;;;;;;;3.40;1.60;;;15.70;82.60;;;;;;5102994;28;20065;-70
2022/05/30 08:18:56;;;;;;;3.80;1.45;;;15.60;83.10;;;;;;5086012;28;20020;-70
2022/05/30 08:21:21;;;;;;;3.53;1.92;;;15.70;83.50;;;;;;5103093;28;20023;-69
2022/05/30 08:23:49;;;;;;;3.05;1.77;;;15.70;83.20;;;;;;5102629;28;20028;-71
2022/05/30 08:26:15;;;;;;;7.72;2.20;;;15.70;82.80;;;;;;5083003;28;20012;-70
2022/05/30 08:28:43;;;;;;;4.90;2.30;;;15.70;84.30;;;;;;5083616;28;20326;-69
2022/05/30 08:31:09;;;;;;;6.78;1.92;;;15.90;84.40;;;;;;5082927;28;20037;-71
2022/05/30 08:33:38;;;;;;;4.30;2.30;;;16.10;83.60;;;;;;5066129;28;20223;-70
2022/05/30 08:36:07;;;;;;;3.03;1.92;;;16.20;83.40;;;;;;5084174;28;20027;-71
2022/05/30 08:38:33;;;;;;;5.30;2.08;;;16.10;83.60;;;;;;5065251;28;20032;-69
2022/05/30 08:43:52;;;;;;;6.43;3.97;;;16.10;81.10;;;;;;5067306;28;20195;-70
2022/05/30 08:46:35;;;;;;;5.45;3.50;;;16.10;81.10;;;;;;5069210;28;20075;-70
2022/05/30 08:49:22;;;;;;;5.45;2.78;;;16.20;81.10;;;;;;5068922;28;20382;-71
2022/05/30 08:52:20;;;;;;;8.23;2.80;;;16.30;81.90;;;;;;5103708;28;20055;-69
2022/05/30 08:55:18;;;;;;;3.78;2.13;;;16.30;82.20;;;;;;5089711;28;20016;-70
2022/05/30 08:58:22;;;;;;;4.28;2.47;;;16.20;82.00;;;;;;5068228;28;20028;-70
2022/05/30 09:00:53;;;;;;;5.25;2.33;;;16.10;82.40;;;;;;5082094;28;20025;-69
2022/05/30 09:04:08;;;;;;;4.35;2.33;;;16.00;83.10;;;;;;5083376;28;20319;-69
2022/05/30 09:06:41;;;;;;;7.63;2.55;;;15.80;83.10;;;;;;5082075;28;20122;-69
2022/05/30 09:09:16;;;;;;;3.95;2.05;;;15.80;84.30;;;;;;5079932;28;20024;-70
2022/05/30 09:11:50;;;;;;;9.13;2.80;;;15.80;84.40;;;;;;5099123;28;20092;-69
2022/05/30 09:14:31;;;;;;;6.57;2.47;;;15.60;85.00;;;;;;5082995;28;20028;-70
2022/05/30 09:17:04;;;;;;;3.78;2.30;;;15.80;85.00;;;;;;5083504;28;20025;-70
2022/05/30 09:19:30;;;;;;;3.97;2.45;;;16.00;85.00;;;;;;5065576;28;20210;-70
2022/05/30 09:22:01;;;;;;;4.72;2.05;;;16.20;84.20;;;;;;5086244;28;20027;-69
2022/05/30 09:24:33;;;;;;;4.18;2.00;;;16.40;83.40;;;;;;5085284;28;20246;-70
2022/05/30 09:27:05;;;;;;;5.97;2.65;;;16.50;83.30;;;;;;5079064;28;20055;-70
2022/05/30 09:29:50;;;;;;;5.13;2.03;;;16.40;82.50;;;;;;5085886;28;20025;-71
2022/05/30 09:32:56;;;;;;;5.50;2.35;;;16.50;82.20;;;;;;5087085;28;20082;-69
2022/05/30 09:35:26;;;;;;;4.38;2.10;;;16.70;82.70;;;;;;5088528;28;20016;-72
2022/05/30 09:38:20;;;;;;;5.53;2.60;;;16.90;82.20;;;;;;5085608;28;20021;-70
2022/05/30 09:40:55;;;;;;;6.10;2.78;;;16.70;82.40;;;;;;5085511;28;20023;-71
2022/05/30 09:43:26;;;;;;;5.22;2.50;;;16.60;83.40;;;;;;5084169;28;20024;-70
2022/05/30 09:45:53;;;;;;;8.93;2.97;;;16.60;83.40;;;;;;5085578;28;20021;-70
2022/05/30 09:48:20;;;;;;;4.32;2.33;;;16.70;82.90;;;;;;5106733;28;20047;-70
2022/05/30 09:50:49;;;;;;;5.53;2.47;;;16.70;83.10;;;;;;5104969;28;20370;-71
2022/05/30 09:53:41;;;;;;;5.97;2.88;;;16.60;83.20;;;;;;5105643;28;20032;-71
2022/05/30 09:56:07;;;;;;;3.72;2.50;;;16.80;83.30;;;;;;5072516;28;20020;-70
2022/05/30 09:59:17;;;;;;;7.43;2.72;;;17.00;82.70;;;;;;5068311;28;20048;-71
2022/05/30 10:01:50;;;;;;;11.23;2.30;;;17.00;83.10;;;;;;5074341;28;20033;-70
2022/05/30 10:04:41;;;;;;;8.15;2.70;;;16.80;83.10;;;;;;5086013;28;20020;-70
2022/05/30 10:07:17;;;;;;;5.30;2.20;;;16.60;84.10;;;;;;5073727;28;20210;-70
2022/05/30 10:10:19;;;;;;;3.97;1.98;;;16.40;83.60;;;;;;5105852;28;20295;-70
2022/05/30 10:12:55;;;;;;;7.75;2.60;;;16.10;83.50;;;;;;5093745;28;20066;-70
2022/05/30 10:15:28;;;;;;;3.40;2.38;;;16.00;83.70;;;;;;5088595;28;20012;-69
2022/05/30 10:17:56;;;;;;;4.05;1.23;;;16.10;85.00;;;;;;5105496;28;20026;-71
2022/05/30 10:20:42;;;;;;;2.65;1.58;;;16.30;77.10;;;;;;5088054;28;20027;-71
2022/05/30 10:29:58;;;;;;;11.18;3.28;;;16.70;84.20;;;;;;5111524;28;20035;-71
2022/05/30 10:33:04;;;;;;;3.72;2.53;;;16.90;83.40;;;;;;5109971;28;20082;-71
2022/05/30 10:36:03;;;;;;;4.57;2.38;;;17.30;82.50;;;;;;5114443;28;20261;-70
2022/05/30 10:38:50;;;;;;;3.67;2.40;;;17.50;81.70;;;;;;5094815;28;20027;-70
2022/05/30 10:41:54;;;;;;;3.63;2.40;;;17.30;81.60;;;;;;5125248;28;20355;-70
2022/05/30 10:44:30;;;;;;;7.22;2.70;;;17.20;81.50;;;;;;5123679;28;20031;-70
2022/05/30 10:47:35;;;;;;;5.95;2.67;;;17.10;81.50;;;;;;5116217;28;20211;-71
2022/05/30 10:50:15;;;;;;;4.60;2.50;;;17.30;81.60;;;;;;5074539;28;20111;-70
2022/05/30 10:52:48;;;;;;;3.25;2.38;;;17.50;80.60;;;;;;5105767;28;20031;-70
2022/05/30 10:55:24;;;;;;;7.68;2.45;;;17.60;80.00;;;;;;5087754;28;20069;-71
2022/05/30 10:57:56;;;;;;;3.95;2.60;;;17.50;79.50;;;;;;5084430;28;20021;-69
2022/05/30 11:00:28;;;;;;;3.45;2.20;;;17.30;79.80;;;;;;5083980;28;20025;-69
2022/05/30 11:03:21;;;;;;;11.30;2.55;;;17.00;79.90;;;;;;5084079;28;20035;-70
2022/05/30 11:06:23;;;;;;;5.28;2.67;;;16.90;81.20;;;;;;5084090;28;20024;-69
2022/05/30 11:09:07;;;;;;;4.38;2.67;;;16.70;81.80;;;;;;5079262;28;20062;-70
2022/05/30 11:12:13;;;;;;;5.22;2.63;;;16.60;82.80;;;;;;5084753;28;20028;-71
2022/05/30 11:15:03;;;;;;;4.95;2.90;;;16.60;83.30;;;;;;5095808;28;20020;-70
2022/05/30 11:17:56;;;;;;;8.18;2.97;;;16.50;85.30;;;;;;5097946;28;20077;-71
2022/05/30 11:20:33;;;;;;;6.05;2.90;;;16.60;84.90;;;;;;5083595;28;20057;-70
2022/05/30 11:22:59;;;;;;;5.47;2.90;;;16.50;84.90;;;;;;5083465;28;20020;-72
2022/05/30 11:26:03;;;;;;;7.65;3.20;;;16.30;85.70;;;;;;5084643;28;20025;-71
2022/05/30 11:29:11;;;;;;;4.45;2.50;;;16.20;85.00;;;;;;5072268;28;20203;-70
2022/05/30 11:31:53;;;;;;;4.53;1.75;;;16.10;85.90;;;;;;5072517;28;20031;-70
2022/05/30 11:34:58;;;;;;;4.13;1.77;;;16.00;86.40;;;;;;5067729;28;20339;-69
2022/05/30 11:37:53;;;;;;;4.13;1.55;;;15.90;86.40;;;;;;5072050;28;20017;-70
2022/05/30 11:40:30;;;;;;;5.60;1.35;;;15.70;86.60;;;;;;5069008;28;20031;-69
2022/05/30 11:43:23;;;;;;;1.95;0.90;;;15.50;86.30;;;;;;5083563;28;20044;-70
2022/05/30 11:46:15;;;;;;;4.63;1.10;;;15.40;85.70;;;;;;5067563;28;20026;-70
2022/05/30 11:48:46;;;;;;;;;;;15.40;86.60;;;;;;5083484;28;20099;-69
2022/05/30 11:51:41;;;;;;;7.53;1.60;;;15.40;87.00;;;;;;5084260;28;19987;-70
2022/05/30 11:54:46;;;;;;;3.83;1.10;;;15.30;86.00;;;;;;5083447;28;20250;-70
2022/05/30 11:57:25;;;;;;;1.45;1.10;;;15.00;84.90;;;;;;5088340;28;20035;-69
2022/05/30 12:00:19;;;;;;;3.22;1.05;;;14.90;84.70;;;;;;5104773;28;20084;-70
2022/05/30 12:03:24;;;;;;;4.40;0.80;;;15.00;84.70;;;;;;5102988;28;20020;-70
2022/05/30 12:06:18;;;;;;;8.48;1.40;;;15.00;84.30;;;;;;5089116;28;20397;-70
2022/05/30 12:09:23;;;;;;;11.95;1.85;;;15.00;84.30;;;;;;5087128;28;20020;-70
2022/05/30 12:12:16;;;;;;;5.22;1.67;;;15.20;84.00;;;;;;5082898;28;20029;-69
2022/05/30 12:15:21;;;;;;;3.67;1.50;;;15.30;84.10;;;;;;5082939;28;20032;-71
2022/05/30 12:24:28;;;;;;;2.30;1.10;;;15.60;83.50;;;;;;5082660;28;20020;-70
2022/05/30 12:26:58;;;;;;;4.57;1.50;;;15.70;82.30;;;;;;5089381;28;20019;-70
2022/05/30 12:29:45;;;;;;;4.07;1.40;;;15.70;82.80;;;;;;5123440;28;20019;-72
2022/05/30 12:32:17;;;;;;;4.18;0.95;;;15.90;82.90;;;;;;5108876;28;20311;-70
2022/05/30 12:35:06;;;;;;;6.22;0.93;;;16.00;81.00;;;;;;5122931;28;20027;-70
2022/05/30 12:38:06;;;;;;;2.08;0.70;;;16.10;79.80;;;;;;5122779;28;20352;-70
2022/05/30 12:40:37;;;;;;;1.10;0.77;;;16.00;80.30;;;;;;5123394;28;20076;-71
2022/05/30 12:43:43;;;;;;;1.03;0.70;;;16.10;80.50;;;;;;5124065;28;20027;-70
2022/05/30 12:46:13;;;;;;;2.13;0.70;;;16.30;80.60;;;;;;5119202;28;20247;-70
2022/05/30 12:49:01;;;;;;;1.63;0.60;;;16.60;79.60;;;;;;5103866;28;20024;-70
2022/05/30 12:51:59;;;;;;;1.55;0.75;;;16.70;79.40;;;;;;5102151;28;20044;-71
2022/05/30 12:54:34;;;;;;;1.88;0.60;;;16.80;79.00;;;;;;5093628;28;20212;-70
2022/05/30 12:57:07;;;;;;;1.75;0.60;;;16.80;78.90;;;;;;5109746;28;20024;-70
2022/05/30 12:59:54;;;;;;;1.45;0.80;;;16.70;78.70;;;;;;5092459;28;20047;-70
2022/05/30 13:02:44;;;;;;;2.65;0.77;;;16.50;79.60;;;;;;5108970;28;20107;-71
2022/05/30 13:05:55;;;;;;;6.28;1.25;;;17.00;79.90;;;;;;5092208;28;20050;-70
2022/05/30 13:08:46;;;;;;;2.10;0.80;;;17.30;80.30;;;;;;5091279;28;20042;-70
2022/05/30 13:11:22;;;;;;;2.17;0.77;;;17.80;79.00;;;;;;5075545;28;20350;-70
2022/05/30 13:13:53;;;;;;;4.35;0.95;;;17.60;79.40;;;;;;5087989;28;20058;-70
2022/05/30 13:16:33;;;;;;;1.27;0.90;;;17.80;79.40;;;;;;5089971;28;20020;-69
2022/05/30 13:18:58;;;;;;;2.88;0.77;;;17.80;78.70;;;;;;5073060;28;20020;-71
2022/05/30 13:21:28;;;;;;;1.70;0.70;;;18.00;79.40;;;;;;5071792;28;20275;-72
2022/05/30 13:23:53;;;;;;;3.38;1.20;;;18.30;78.70;;;;;;5089594;28;20031;-72
2022/05/30 13:26:21;;;;;;;2.28;0.80;;;18.50;78.30;;;;;;5056652;28;20075;-71
2022/05/30 13:28:54;;;;;;;4.72;1.10;;;18.40;78.20;;;;;;5088210;28;20024;-71
2022/05/30 13:31:21;;;;;;;4.93;0.98;;;18.30;78.50;;;;;;5088646;28;20031;-72
2022/05/30 13:33:49;;;;;;;4.10;1.35;;;18.20;79.30;;;;;;5104725;28;20017;-71
2022/05/30 13:36:27;;;;;;;5.57;1.23;;;17.90;79.80;;;;;;5105040;28;20315;-71
2022/05/30 13:38:54;;;;;;;8.23;1.88;;;17.80;79.80;;;;;;5105204;28;20024;-71
2022/05/30 13:41:34;;;;;;;1.48;1.00;;;17.40;81.40;;;;;;5088757;28;20212;-71
2022/05/30 13:44:00;;;;;;;4.60;1.20;;;17.50;80.30;;;;;;5103841;28;20024;-70